sensor_id;sensor_type;location;lat;lon;timestamp;temperature;humidity
25108;DHT22;13090;53.422;7.670;2022-08-01T00:02:35;21.70;80.60
25108;DHT22;13090;53.422;7.670;2022-08-01T00:07:40;21.70;80.80
25108;DHT22;13090;53.422;7.670;2022-08-01T00:12:43;21.70;81.00
25108;DHT22;13090;53.422;7.670;2022-08-01T00:17:46;21.60;80.90
25108;DHT22;13090;53.422;7.670;2022-08-01T00:22:50;21.70;80.90
25108;DHT22;13090;53.422;7.670;2022-08-01T00:27:52;21.70;81.00
25108;DHT22;13090;53.422;7.670;2022-08-01T00:32:55;21.70;80.90
25108;DHT22;13090;53.422;7.670;2022-08-01T00:37:59;21.70;80.90
25108;DHT22;13090;53.422;7.670;2022-08-01T00:43:01;21.70;81.10
25108;DHT22;13090;53.422;7.670;2022-08-01T00:48:04;21.70;81.20
25108;DHT22;13090;53.422;7.670;2022-08-01T00:53:08;21.60;81.20
25108;DHT22;13090;53.422;7.670;2022-08-01T00:58:20;21.70;81.20
25108;DHT22;13090;53.422;7.670;2022-08-01T01:03:25;21.70;80.80
25108;DHT22;13090;53.422;7.670;2022-08-01T01:08:58;21.60;80.30
25108;DHT22;13090;53.422;7.670;2022-08-01T01:14:10;21.50;80.80
25108;DHT22;13090;53.422;7.670;2022-08-01T01:19:23;21.50;80.70
25108;DHT22;13090;53.422;7.670;2022-08-01T01:24:38;21.40;80.60
25108;DHT22;13090;53.422;7.670;2022-08-01T01:29:48;21.40;80.70
25108;DHT22;13090;53.422;7.670;2022-08-01T01:35:06;21.30;80.40
25108;DHT22;13090;53.422;7.670;2022-08-01T01:40:11;21.20;80.50
25108;DHT22;13090;53.422;7.670;2022-08-01T01:45:16;21.20;80.50
25108;DHT22;13090;53.422;7.670;2022-08-01T01:50:20;21.10;80.80
25108;DHT22;13090;53.422;7.670;2022-08-01T01:55:24;21.00;80.90
25108;DHT22;13090;53.422;7.670;2022-08-01T02:00:29;21.00;81.00
25108;DHT22;13090;53.422;7.670;2022-08-01T02:05:34;20.90;81.30
25108;DHT22;13090;53.422;7.670;2022-08-01T02:10:38;20.90;81.20
25108;DHT22;13090;53.422;7.670;2022-08-01T02:15:44;20.90;81.20
25108;DHT22;13090;53.422;7.670;2022-08-01T02:21:04;20.90;81.40
25108;DHT22;13090;53.422;7.670;2022-08-01T02:26:14;20.90;81.40
25108;DHT22;13090;53.422;7.670;2022-08-01T02:31:22;20.90;81.40
25108;DHT22;13090;53.422;7.670;2022-08-01T02:36:26;20.90;81.20
25108;DHT22;13090;53.422;7.670;2022-08-01T02:41:39;20.90;81.20
25108;DHT22;13090;53.422;7.670;2022-08-01T02:46:49;20.90;81.30
25108;DHT22;13090;53.422;7.670;2022-08-01T02:51:53;20.80;81.10
25108;DHT22;13090;53.422;7.670;2022-08-01T02:56:57;20.80;80.90
25108;DHT22;13090;53.422;7.670;2022-08-01T03:02:02;20.80;80.80
25108;DHT22;13090;53.422;7.670;2022-08-01T03:07:07;20.70;80.70
25108;DHT22;13090;53.422;7.670;2022-08-01T03:12:13;20.70;80.50
25108;DHT22;13090;53.422;7.670;2022-08-01T03:17:18;20.70;80.70
25108;DHT22;13090;53.422;7.670;2022-08-01T03:22:24;20.60;80.80
25108;DHT22;13090;53.422;7.670;2022-08-01T03:27:28;20.50;80.70
25108;DHT22;13090;53.422;7.670;2022-08-01T03:32:34;20.50;80.70
25108;DHT22;13090;53.422;7.670;2022-08-01T03:37:41;20.50;80.90
25108;DHT22;13090;53.422;7.670;2022-08-01T03:43:07;20.40;81.00
25108;DHT22;13090;53.422;7.670;2022-08-01T03:48:17;20.40;80.90
25108;DHT22;13090;53.422;7.670;2022-08-01T03:53:22;20.40;80.90
25108;DHT22;13090;53.422;7.670;2022-08-01T03:58:28;20.30;81.00
25108;DHT22;13090;53.422;7.670;2022-08-01T04:03:33;20.40;80.80
25108;DHT22;13090;53.422;7.670;2022-08-01T04:08:43;20.40;80.60
25108;DHT22;13090;53.422;7.670;2022-08-01T04:13:45;20.30;80.20
25108;DHT22;13090;53.422;7.670;2022-08-01T04:18:50;20.30;80.10
25108;DHT22;13090;53.422;7.670;2022-08-01T04:23:53;20.20;80.00
25108;DHT22;13090;53.422;7.670;2022-08-01T04:28:56;20.20;79.90
25108;DHT22;13090;53.422;7.670;2022-08-01T04:34:02;20.10;79.70
25108;DHT22;13090;53.422;7.670;2022-08-01T04:39:06;20.10;79.70
25108;DHT22;13090;53.422;7.670;2022-08-01T04:44:08;20.10;79.70
25108;DHT22;13090;53.422;7.670;2022-08-01T04:49:12;20.10;79.90
25108;DHT22;13090;53.422;7.670;2022-08-01T04:54:15;20.20;80.10
25108;DHT22;13090;53.422;7.670;2022-08-01T04:59:17;20.40;80.60
25108;DHT22;13090;53.422;7.670;2022-08-01T05:04:22;20.60;81.10
25108;DHT22;13090;53.422;7.670;2022-08-01T05:09:25;21.00;80.90
25108;DHT22;13090;53.422;7.670;2022-08-01T05:14:32;21.40;79.80
25108;DHT22;13090;53.422;7.670;2022-08-01T05:19:37;21.70;79.40
25108;DHT22;13090;53.422;7.670;2022-08-01T05:24:41;22.00;78.30
25108;DHT22;13090;53.422;7.670;2022-08-01T05:29:45;22.30;77.80
25108;DHT22;13090;53.422;7.670;2022-08-01T05:34:49;22.70;78.00
25108;DHT22;13090;53.422;7.670;2022-08-01T05:39:52;23.50;77.50
25108;DHT22;13090;53.422;7.670;2022-08-01T05:44:54;24.20;76.60
25108;DHT22;13090;53.422;7.670;2022-08-01T05:49:58;25.00;75.00
25108;DHT22;13090;53.422;7.670;2022-08-01T05:55:00;25.70;72.50
25108;DHT22;13090;53.422;7.670;2022-08-01T06:00:04;26.40;71.70
25108;DHT22;13090;53.422;7.670;2022-08-01T06:05:09;26.90;69.30
25108;DHT22;13090;53.422;7.670;2022-08-01T06:10:14;26.80;66.10
25108;DHT22;13090;53.422;7.670;2022-08-01T06:15:17;26.50;65.70
25108;DHT22;13090;53.422;7.670;2022-08-01T06:20:21;26.00;65.70
25108;DHT22;13090;53.422;7.670;2022-08-01T06:25:23;25.80;66.70
25108;DHT22;13090;53.422;7.670;2022-08-01T06:30:26;26.00;68.00
25108;DHT22;13090;53.422;7.670;2022-08-01T06:35:30;26.50;68.40
25108;DHT22;13090;53.422;7.670;2022-08-01T06:40:33;27.20;67.70
25108;DHT22;13090;53.422;7.670;2022-08-01T06:45:37;28.20;67.70
25108;DHT22;13090;53.422;7.670;2022-08-01T06:50:41;29.10;66.40
25108;DHT22;13090;53.422;7.670;2022-08-01T06:55:44;29.70;62.00
25108;DHT22;13090;53.422;7.670;2022-08-01T07:00:46;30.20;61.10
25108;DHT22;13090;53.422;7.670;2022-08-01T07:05:50;30.70;59.90
25108;DHT22;13090;53.422;7.670;2022-08-01T07:10:53;31.10;58.10
25108;DHT22;13090;53.422;7.670;2022-08-01T07:15:55;31.40;57.70
25108;DHT22;13090;53.422;7.670;2022-08-01T07:21:00;31.70;56.80
25108;DHT22;13090;53.422;7.670;2022-08-01T07:26:05;31.80;55.30
25108;DHT22;13090;53.422;7.670;2022-08-01T07:31:08;31.60;54.60
25108;DHT22;13090;53.422;7.670;2022-08-01T07:36:12;31.40;53.90
25108;DHT22;13090;53.422;7.670;2022-08-01T07:41:15;31.00;52.90
25108;DHT22;13090;53.422;7.670;2022-08-01T07:46:18;30.50;53.00
25108;DHT22;13090;53.422;7.670;2022-08-01T07:51:22;29.90;52.60
25108;DHT22;13090;53.422;7.670;2022-08-01T07:56:24;29.30;53.10
25108;DHT22;13090;53.422;7.670;2022-08-01T08:01:27;28.80;54.10
25108;DHT22;13090;53.422;7.670;2022-08-01T08:06:31;28.50;54.30
25108;DHT22;13090;53.422;7.670;2022-08-01T08:11:34;28.20;54.10
25108;DHT22;13090;53.422;7.670;2022-08-01T08:16:36;27.90;54.70
25108;DHT22;13090;53.422;7.670;2022-08-01T08:21:40;27.80;55.30
25108;DHT22;13090;53.422;7.670;2022-08-01T08:26:43;27.80;54.90
25108;DHT22;13090;53.422;7.670;2022-08-01T08:31:45;28.00;55.60
25108;DHT22;13090;53.422;7.670;2022-08-01T08:36:56;28.50;56.80
25108;DHT22;13090;53.422;7.670;2022-08-01T08:42:01;29.40;54.80
25108;DHT22;13090;53.422;7.670;2022-08-01T08:47:03;29.70;53.50
25108;DHT22;13090;53.422;7.670;2022-08-01T08:52:12;30.00;52.90
25108;DHT22;13090;53.422;7.670;2022-08-01T08:57:15;30.30;52.10
25108;DHT22;13090;53.422;7.670;2022-08-01T09:02:18;30.70;52.10
25108;DHT22;13090;53.422;7.670;2022-08-01T09:07:22;30.90;50.80
25108;DHT22;13090;53.422;7.670;2022-08-01T09:12:25;31.30;50.40
25108;DHT22;13090;53.422;7.670;2022-08-01T09:17:28;31.80;50.50
25108;DHT22;13090;53.422;7.670;2022-08-01T09:22:42;32.50;50.00
25108;DHT22;13090;53.422;7.670;2022-08-01T09:28:02;33.20;48.90
25108;DHT22;13090;53.422;7.670;2022-08-01T09:33:05;33.90;46.50
25108;DHT22;13090;53.422;7.670;2022-08-01T09:38:25;34.60;46.90
25108;DHT22;13090;53.422;7.670;2022-08-01T09:43:28;35.00;44.40
25108;DHT22;13090;53.422;7.670;2022-08-01T09:48:32;35.20;48.20
25108;DHT22;13090;53.422;7.670;2022-08-01T09:53:45;35.10;44.20
25108;DHT22;13090;53.422;7.670;2022-08-01T09:58:55;34.90;41.80
25108;DHT22;13090;53.422;7.670;2022-08-01T10:04:08;35.00;43.40
25108;DHT22;13090;53.422;7.670;2022-08-01T10:09:14;35.30;42.30
25108;DHT22;13090;53.422;7.670;2022-08-01T10:14:18;35.40;42.20
25108;DHT22;13090;53.422;7.670;2022-08-01T10:19:23;35.40;41.10
25108;DHT22;13090;53.422;7.670;2022-08-01T10:24:32;35.30;41.50
25108;DHT22;13090;53.422;7.670;2022-08-01T10:29:42;35.40;40.70
25108;DHT22;13090;53.422;7.670;2022-08-01T10:35:06;35.10;39.70
25108;DHT22;13090;53.422;7.670;2022-08-01T10:40:18;34.80;40.70
25108;DHT22;13090;53.422;7.670;2022-08-01T10:45:32;34.80;41.10
25108;DHT22;13090;53.422;7.670;2022-08-01T10:50:39;34.90;40.80
25108;DHT22;13090;53.422;7.670;2022-08-01T10:55:49;34.70;39.60
25108;DHT22;13090;53.422;7.670;2022-08-01T11:01:17;34.50;38.90
25108;DHT22;13090;53.422;7.670;2022-08-01T11:06:24;34.50;38.80
25108;DHT22;13090;53.422;7.670;2022-08-01T11:11:29;34.40;39.50
25108;DHT22;13090;53.422;7.670;2022-08-01T11:16:40;34.20;38.80
25108;DHT22;13090;53.422;7.670;2022-08-01T11:22:01;33.80;38.70
25108;DHT22;13090;53.422;7.670;2022-08-01T11:27:20;33.60;38.50
25108;DHT22;13090;53.422;7.670;2022-08-01T11:32:25;33.50;38.30
25108;DHT22;13090;53.422;7.670;2022-08-01T11:37:28;33.40;39.30
25108;DHT22;13090;53.422;7.670;2022-08-01T11:42:33;33.60;38.80
25108;DHT22;13090;53.422;7.670;2022-08-01T11:47:46;33.70;38.90
25108;DHT22;13090;53.422;7.670;2022-08-01T11:52:57;33.70;37.30
25108;DHT22;13090;53.422;7.670;2022-08-01T11:58:03;33.50;37.40
25108;DHT22;13090;53.422;7.670;2022-08-01T12:03:08;33.30;37.40
25108;DHT22;13090;53.422;7.670;2022-08-01T12:08:10;33.10;37.80
25108;DHT22;13090;53.422;7.670;2022-08-01T12:13:14;32.90;37.80
25108;DHT22;13090;53.422;7.670;2022-08-01T12:18:17;32.90;37.80
25108;DHT22;13090;53.422;7.670;2022-08-01T12:23:19;33.00;38.20
25108;DHT22;13090;53.422;7.670;2022-08-01T12:28:23;32.80;37.80
25108;DHT22;13090;53.422;7.670;2022-08-01T12:33:26;32.60;37.50
25108;DHT22;13090;53.422;7.670;2022-08-01T12:38:28;32.50;37.90
25108;DHT22;13090;53.422;7.670;2022-08-01T12:43:34;32.40;37.90
25108;DHT22;13090;53.422;7.670;2022-08-01T12:48:36;32.40;37.70
25108;DHT22;13090;53.422;7.670;2022-08-01T12:53:39;32.40;37.70
25108;DHT22;13090;53.422;7.670;2022-08-01T12:58:44;32.20;37.30
25108;DHT22;13090;53.422;7.670;2022-08-01T13:03:58;32.10;37.10
25108;DHT22;13090;53.422;7.670;2022-08-01T13:09:05;31.90;36.50
25108;DHT22;13090;53.422;7.670;2022-08-01T13:14:10;31.70;37.30
25108;DHT22;13090;53.422;7.670;2022-08-01T13:19:13;31.60;37.40
25108;DHT22;13090;53.422;7.670;2022-08-01T13:24:15;31.40;37.30
25108;DHT22;13090;53.422;7.670;2022-08-01T13:29:32;31.30;37.80
25108;DHT22;13090;53.422;7.670;2022-08-01T13:34:34;31.20;37.50
25108;DHT22;13090;53.422;7.670;2022-08-01T13:39:37;31.20;37.80
25108;DHT22;13090;53.422;7.670;2022-08-01T13:44:41;31.10;37.80
25108;DHT22;13090;53.422;7.670;2022-08-01T13:49:44;31.10;37.70
25108;DHT22;13090;53.422;7.670;2022-08-01T13:54:47;30.90;37.50
25108;DHT22;13090;53.422;7.670;2022-08-01T13:59:51;30.80;37.20
25108;DHT22;13090;53.422;7.670;2022-08-01T14:04:54;30.60;37.10
25108;DHT22;13090;53.422;7.670;2022-08-01T14:09:56;30.30;37.80
25108;DHT22;13090;53.422;7.670;2022-08-01T14:15:20;30.10;38.00
25108;DHT22;13090;53.422;7.670;2022-08-01T14:20:40;29.90;38.00
25108;DHT22;13090;53.422;7.670;2022-08-01T14:25:43;29.70;38.10
25108;DHT22;13090;53.422;7.670;2022-08-01T14:31:07;29.60;38.10
25108;DHT22;13090;53.422;7.670;2022-08-01T14:36:09;29.60;37.60
25108;DHT22;13090;53.422;7.670;2022-08-01T14:41:32;29.60;38.00
25108;DHT22;13090;53.422;7.670;2022-08-01T14:46:36;29.50;38.20
25108;DHT22;13090;53.422;7.670;2022-08-01T14:51:58;29.50;38.30
25108;DHT22;13090;53.422;7.670;2022-08-01T14:57:00;29.40;38.40
25108;DHT22;13090;53.422;7.670;2022-08-01T15:02:04;29.30;38.30
25108;DHT22;13090;53.422;7.670;2022-08-01T15:07:08;29.20;38.50
25108;DHT22;13090;53.422;7.670;2022-08-01T15:12:11;29.00;38.60
25108;DHT22;13090;53.422;7.670;2022-08-01T15:17:15;28.90;38.70
25108;DHT22;13090;53.422;7.670;2022-08-01T15:22:17;28.70;38.50
25108;DHT22;13090;53.422;7.670;2022-08-01T15:27:21;28.60;38.90
25108;DHT22;13090;53.422;7.670;2022-08-01T15:32:25;28.40;38.90
25108;DHT22;13090;53.422;7.670;2022-08-01T15:37:28;28.30;38.80
25108;DHT22;13090;53.422;7.670;2022-08-01T15:42:30;28.30;39.20
25108;DHT22;13090;53.422;7.670;2022-08-01T15:47:34;28.30;39.20
25108;DHT22;13090;53.422;7.670;2022-08-01T15:52:37;28.20;39.40
25108;DHT22;13090;53.422;7.670;2022-08-01T15:57:39;28.20;39.00
25108;DHT22;13090;53.422;7.670;2022-08-01T16:02:43;28.10;39.10
25108;DHT22;13090;53.422;7.670;2022-08-01T16:07:46;27.90;39.00
25108;DHT22;13090;53.422;7.670;2022-08-01T16:13:02;27.80;39.00
25108;DHT22;13090;53.422;7.670;2022-08-01T16:18:10;27.60;39.20
25108;DHT22;13090;53.422;7.670;2022-08-01T16:23:14;27.50;39.20
25108;DHT22;13090;53.422;7.670;2022-08-01T16:28:17;27.30;39.50
25108;DHT22;13090;53.422;7.670;2022-08-01T16:33:22;27.10;39.70
25108;DHT22;13090;53.422;7.670;2022-08-01T16:38:45;27.00;39.90
25108;DHT22;13090;53.422;7.670;2022-08-01T16:43:48;26.90;39.90
25108;DHT22;13090;53.422;7.670;2022-08-01T16:48:57;26.70;39.90
25108;DHT22;13090;53.422;7.670;2022-08-01T16:53:59;26.60;40.10
25108;DHT22;13090;53.422;7.670;2022-08-01T16:59:02;26.40;40.20
25108;DHT22;13090;53.422;7.670;2022-08-01T17:04:06;26.30;40.30
25108;DHT22;13090;53.422;7.670;2022-08-01T17:09:08;26.20;40.40
25108;DHT22;13090;53.422;7.670;2022-08-01T17:14:11;26.00;40.60
25108;DHT22;13090;53.422;7.670;2022-08-01T17:19:15;25.90;40.70
25108;DHT22;13090;53.422;7.670;2022-08-01T17:24:17;25.70;40.80
25108;DHT22;13090;53.422;7.670;2022-08-01T17:29:20;25.60;40.80
25108;DHT22;13090;53.422;7.670;2022-08-01T17:34:24;25.40;41.00
25108;DHT22;13090;53.422;7.670;2022-08-01T17:39:28;25.20;41.20
25108;DHT22;13090;53.422;7.670;2022-08-01T17:44:40;25.10;41.40
25108;DHT22;13090;53.422;7.670;2022-08-01T17:49:51;24.90;41.60
25108;DHT22;13090;53.422;7.670;2022-08-01T17:54:56;24.80;41.80
25108;DHT22;13090;53.422;7.670;2022-08-01T17:59:59;24.70;41.90
25108;DHT22;13090;53.422;7.670;2022-08-01T18:05:03;24.50;42.00
25108;DHT22;13090;53.422;7.670;2022-08-01T18:10:12;24.50;42.30
25108;DHT22;13090;53.422;7.670;2022-08-01T18:15:18;24.30;42.30
25108;DHT22;13090;53.422;7.670;2022-08-01T18:20:34;24.20;42.60
25108;DHT22;13090;53.422;7.670;2022-08-01T18:25:37;24.10;43.20
25108;DHT22;13090;53.422;7.670;2022-08-01T18:30:41;23.90;43.10
25108;DHT22;13090;53.422;7.670;2022-08-01T18:35:45;23.70;43.40
25108;DHT22;13090;53.422;7.670;2022-08-01T18:40:55;23.60;43.70
25108;DHT22;13090;53.422;7.670;2022-08-01T18:45:58;23.40;43.90
25108;DHT22;13090;53.422;7.670;2022-08-01T18:51:03;23.30;44.20
25108;DHT22;13090;53.422;7.670;2022-08-01T18:56:10;23.10;44.60
25108;DHT22;13090;53.422;7.670;2022-08-01T19:01:12;23.00;44.90
25108;DHT22;13090;53.422;7.670;2022-08-01T19:06:17;22.80;45.10
25108;DHT22;13090;53.422;7.670;2022-08-01T19:11:20;22.60;45.30
25108;DHT22;13090;53.422;7.670;2022-08-01T19:16:25;22.40;45.60
25108;DHT22;13090;53.422;7.670;2022-08-01T19:21:29;22.20;45.90
25108;DHT22;13090;53.422;7.670;2022-08-01T19:26:32;22.00;46.30
25108;DHT22;13090;53.422;7.670;2022-08-01T19:31:38;21.70;46.70
25108;DHT22;13090;53.422;7.670;2022-08-01T19:36:49;21.50;47.50
25108;DHT22;13090;53.422;7.670;2022-08-01T19:41:54;21.30;48.10
25108;DHT22;13090;53.422;7.670;2022-08-01T19:46:58;21.00;48.20
25108;DHT22;13090;53.422;7.670;2022-08-01T19:52:04;20.80;48.70
25108;DHT22;13090;53.422;7.670;2022-08-01T19:57:07;20.60;49.20
25108;DHT22;13090;53.422;7.670;2022-08-01T20:02:14;20.40;49.30
25108;DHT22;13090;53.422;7.670;2022-08-01T20:07:19;20.20;49.90
25108;DHT22;13090;53.422;7.670;2022-08-01T20:12:22;20.00;49.90
25108;DHT22;13090;53.422;7.670;2022-08-01T20:17:24;19.80;50.00
25108;DHT22;13090;53.422;7.670;2022-08-01T20:22:31;19.60;50.20
25108;DHT22;13090;53.422;7.670;2022-08-01T20:27:35;19.40;50.90
25108;DHT22;13090;53.422;7.670;2022-08-01T20:32:39;19.20;51.30
25108;DHT22;13090;53.422;7.670;2022-08-01T20:37:45;19.00;51.30
25108;DHT22;13090;53.422;7.670;2022-08-01T20:43:09;18.80;52.10
25108;DHT22;13090;53.422;7.670;2022-08-01T20:48:11;18.60;51.90
25108;DHT22;13090;53.422;7.670;2022-08-01T20:53:17;18.40;52.20
25108;DHT22;13090;53.422;7.670;2022-08-01T20:58:48;18.30;52.70
25108;DHT22;13090;53.422;7.670;2022-08-01T21:04:29;18.20;53.70
25108;DHT22;13090;53.422;7.670;2022-08-01T21:09:41;18.00;53.50
25108;DHT22;13090;53.422;7.670;2022-08-01T21:14:50;17.90;53.20
25108;DHT22;13090;53.422;7.670;2022-08-01T21:19:53;17.80;53.80
25108;DHT22;13090;53.422;7.670;2022-08-01T21:25:03;17.70;53.60
25108;DHT22;13090;53.422;7.670;2022-08-01T21:30:08;17.60;54.20
25108;DHT22;13090;53.422;7.670;2022-08-01T21:35:12;17.50;54.30
25108;DHT22;13090;53.422;7.670;2022-08-01T21:40:22;17.40;54.50
25108;DHT22;13090;53.422;7.670;2022-08-01T21:45:26;17.20;54.70
25108;DHT22;13090;53.422;7.670;2022-08-01T21:50:32;17.10;54.80
25108;DHT22;13090;53.422;7.670;2022-08-01T21:56:02;17.00;55.10
25108;DHT22;13090;53.422;7.670;2022-08-01T22:01:21;16.90;56.00
25108;DHT22;13090;53.422;7.670;2022-08-01T22:06:27;16.70;56.10
25108;DHT22;13090;53.422;7.670;2022-08-01T22:11:39;16.50;56.40
25108;DHT22;13090;53.422;7.670;2022-08-01T22:17:02;16.30;57.20
25108;DHT22;13090;53.422;7.670;2022-08-01T22:22:05;16.20;56.70
25108;DHT22;13090;53.422;7.670;2022-08-01T22:27:30;16.10;56.70
25108;DHT22;13090;53.422;7.670;2022-08-01T22:32:54;16.10;57.00
25108;DHT22;13090;53.422;7.670;2022-08-01T22:38:18;16.10;57.00
25108;DHT22;13090;53.422;7.670;2022-08-01T22:43:29;16.00;57.20
25108;DHT22;13090;53.422;7.670;2022-08-01T22:48:40;15.90;57.90
25108;DHT22;13090;53.422;7.670;2022-08-01T22:53:52;15.80;58.00
25108;DHT22;13090;53.422;7.670;2022-08-01T22:58:58;15.60;58.60
25108;DHT22;13090;53.422;7.670;2022-08-01T23:04:03;15.50;58.50
25108;DHT22;13090;53.422;7.670;2022-08-01T23:09:06;15.50;58.40
25108;DHT22;13090;53.422;7.670;2022-08-01T23:14:12;15.40;58.90
25108;DHT22;13090;53.422;7.670;2022-08-01T23:19:15;15.20;59.30
25108;DHT22;13090;53.422;7.670;2022-08-01T23:24:19;15.10;59.50
25108;DHT22;13090;53.422;7.670;2022-08-01T23:29:23;15.00;59.70
25108;DHT22;13090;53.422;7.670;2022-08-01T23:34:25;15.00;59.90
25108;DHT22;13090;53.422;7.670;2022-08-01T23:39:28;15.00;59.70
25108;DHT22;13090;53.422;7.670;2022-08-01T23:44:32;15.00;59.70
25108;DHT22;13090;53.422;7.670;2022-08-01T23:49:35;15.00;59.70
25108;DHT22;13090;53.422;7.670;2022-08-01T23:54:54;15.00;59.60
25108;DHT22;13090;53.422;7.670;2022-08-01T23:59:59;14.90;59.60
